createdAt,value
2022-11-21T00:02:19.113Z,27.75
2022-11-21T00:04:59.123Z,27.63
2022-11-21T00:07:46.061Z,24.80
2022-11-21T00:10:33.057Z,27.52
2022-11-21T00:13:32.041Z,28.27
2022-11-21T00:16:22.124Z,25.48
2022-11-21T00:19:02.061Z,25.80
2022-11-21T00:21:42.511Z,25.63
2022-11-21T00:24:29.308Z,25.83
2022-11-21T00:27:09.595Z,26.20
2022-11-21T00:29:56.083Z,24.90
2022-11-21T00:32:43.135Z,27.80
2022-11-21T00:35:23.071Z,24.10
2022-11-21T00:38:10.164Z,24.77
2022-11-21T00:40:51.075Z,23.65
2022-11-21T00:43:31.811Z,24.75
2022-11-21T00:46:18.067Z,24.27
2022-11-21T00:49:05.103Z,26.48
2022-11-21T00:51:45.210Z,25.05
2022-11-21T00:54:32.061Z,24.77
2022-11-21T00:57:19.149Z,25.35
2022-11-21T00:59:59.044Z,25.17
2022-11-21T01:02:39.571Z,22.45
2022-11-21T01:05:26.093Z,24.52
2022-11-21T01:08:06.773Z,24.95
2022-11-21T01:10:53.056Z,25.65
2022-11-21T01:13:41.192Z,23.55
2022-11-21T01:16:24.067Z,23.35
2022-11-21T01:19:05.051Z,24.20
2022-11-21T01:21:52.071Z,23.65
2022-11-21T01:24:39.043Z,26.50
2022-11-21T01:27:26.080Z,22.75
2022-11-21T01:30:07.261Z,24.55
2022-11-21T01:32:54.075Z,24.90
2022-11-21T01:35:41.164Z,22.17
2022-11-21T01:38:21.056Z,24.23
2022-11-21T01:41:08.136Z,24.63
2022-11-21T01:43:48.143Z,23.75
2022-11-21T01:46:35.057Z,24.02
2022-11-21T01:49:31.048Z,23.85
2022-11-21T01:52:38.085Z,23.42
2022-11-21T01:55:18.103Z,25.10
2022-11-21T01:58:05.040Z,28.00
2022-11-21T02:00:49.196Z,23.58
2022-11-21T02:03:40.057Z,22.75
2022-11-21T02:06:20.128Z,24.08
2022-11-21T02:09:08.052Z,23.70
2022-11-21T02:12:33.123Z,24.42
2022-11-21T02:15:20.081Z,25.92
2022-11-21T02:18:07.046Z,25.38
2022-11-21T02:21:00.082Z,23.00
2022-11-21T02:24:25.293Z,22.92
2022-11-21T02:27:12.205Z,25.70
2022-11-21T02:29:52.045Z,24.70
2022-11-21T02:32:42.068Z,27.55
2022-11-21T02:35:31.088Z,24.33
2022-11-21T02:38:23.556Z,23.23
2022-11-21T02:41:33.064Z,22.83
2022-11-21T02:44:20.949Z,23.67
2022-11-21T02:47:08.065Z,24.17
2022-11-21T02:50:02.168Z,24.67
2022-11-21T02:52:42.064Z,23.88
2022-11-21T02:55:37.043Z,25.40
2022-11-21T02:58:24.055Z,23.67
2022-11-21T03:01:04.292Z,26.63
2022-11-21T03:03:51.100Z,23.88
2022-11-21T03:06:38.088Z,25.75
2022-11-21T03:09:25.056Z,25.30
2022-11-21T03:12:05.100Z,27.77
2022-11-21T03:14:52.050Z,27.80
2022-11-21T03:17:39.096Z,31.20
2022-11-21T03:20:26.199Z,27.23
2022-11-21T03:23:06.048Z,29.00
2022-11-21T03:25:53.177Z,30.48
2022-11-21T03:28:33.051Z,30.92
2022-11-21T03:31:20.219Z,26.70
2022-11-21T03:34:00.047Z,30.77
2022-11-21T03:36:40.518Z,26.00
2022-11-21T03:39:27.048Z,26.80
2022-11-21T03:42:14.038Z,28.83
2022-11-21T03:45:01.082Z,25.50
2022-11-21T03:47:41.653Z,27.42
2022-11-21T03:50:28.066Z,27.40
2022-11-21T03:53:08.525Z,27.25
2022-11-21T03:55:56.030Z,27.83
2022-11-21T03:58:43.051Z,28.63
2022-11-21T04:01:23.151Z,27.63
2022-11-21T04:04:10.067Z,26.60
2022-11-21T04:06:50.091Z,26.70
2022-11-21T04:09:37.056Z,27.13
2022-11-21T04:12:17.130Z,26.52
2022-11-21T04:15:05.318Z,27.77
2022-11-21T04:17:47.179Z,28.63
2022-11-21T04:20:34.049Z,26.67
2022-11-21T04:23:14.307Z,26.27
2022-11-21T04:26:02.092Z,27.73
2022-11-21T04:28:42.124Z,27.40
2022-11-21T04:31:29.040Z,26.45
2022-11-21T04:34:16.041Z,25.73
2022-11-21T04:37:07.508Z,26.40
2022-11-21T04:39:50.065Z,28.70
2022-11-21T04:42:37.060Z,27.20
2022-11-21T04:45:18.254Z,27.52
2022-11-21T04:48:05.043Z,25.50
2022-11-21T04:50:45.131Z,30.48
2022-11-21T04:53:32.069Z,26.30
2022-11-21T04:56:16.400Z,27.08
2022-11-21T04:59:03.064Z,28.10
2022-11-21T05:01:44.267Z,27.98
2022-11-21T05:04:31.055Z,37.20
2022-11-21T05:07:11.106Z,26.13
2022-11-21T05:09:58.062Z,28.23
2022-11-21T05:12:56.939Z,29.05
2022-11-21T05:15:44.065Z,25.40
2022-11-21T05:18:26.103Z,23.45
2022-11-21T05:21:13.078Z,23.13
2022-11-21T05:24:00.099Z,27.27
2022-11-21T05:26:47.139Z,26.83
2022-11-21T05:29:28.320Z,26.65
2022-11-21T05:32:08.555Z,27.83
2022-11-21T05:34:55.075Z,24.65
2022-11-21T05:37:35.544Z,24.30
2022-11-21T05:40:22.108Z,24.80
2022-11-21T05:43:27.972Z,26.63
2022-11-21T05:46:08.040Z,25.98
2022-11-21T05:48:49.746Z,25.42
2022-11-21T05:51:36.044Z,25.13
2022-11-21T05:54:23.195Z,24.55
2022-11-21T05:57:10.122Z,24.95
2022-11-21T05:59:50.166Z,24.60
2022-11-21T06:02:56.059Z,24.83
2022-11-21T06:05:37.099Z,22.30
2022-11-21T06:08:24.056Z,25.77
2022-11-21T06:11:11.047Z,25.13
2022-11-21T06:13:59.069Z,27.15
2022-11-21T06:16:46.060Z,27.63
2022-11-21T06:19:26.527Z,29.77
2022-11-21T06:22:13.059Z,27.60
2022-11-21T06:24:53.547Z,29.48
2022-11-21T06:27:42.054Z,27.13
2022-11-21T06:30:22.581Z,27.88
2022-11-21T06:33:09.051Z,26.15
2022-11-21T06:35:49.545Z,26.90
2022-11-21T06:38:36.037Z,29.17
2022-11-21T06:41:19.220Z,28.42
2022-11-21T06:44:08.047Z,29.98
2022-11-21T06:46:55.059Z,30.30
2022-11-21T06:49:35.096Z,28.77
2022-11-21T06:52:22.054Z,27.95
2022-11-21T06:55:02.176Z,29.10
2022-11-21T06:57:56.060Z,27.25
2022-11-21T07:00:44.298Z,30.55
2022-11-21T07:03:25.043Z,30.00
2022-11-21T07:06:13.120Z,29.15
2022-11-21T07:09:17.568Z,28.02
2022-11-21T07:12:00.071Z,29.77
2022-11-21T07:14:47.058Z,26.67
2022-11-21T07:17:34.110Z,27.42
2022-11-21T07:20:15.047Z,22.63
2022-11-21T07:22:55.816Z,23.58
2022-11-21T07:25:42.083Z,23.77
2022-11-21T07:28:29.068Z,23.15
2022-11-21T07:31:16.075Z,22.73
2022-11-21T07:34:03.047Z,20.75
2022-11-21T07:36:50.040Z,20.83
2022-11-21T07:39:37.043Z,19.02
2022-11-21T07:42:24.077Z,20.55
2022-11-21T07:45:12.356Z,19.38
2022-11-21T07:47:52.440Z,21.08
2022-11-21T07:50:40.087Z,20.40
2022-11-21T07:53:20.176Z,18.13
2022-11-21T07:56:07.048Z,19.98
2022-11-21T07:58:54.102Z,19.38
2022-11-21T08:01:34.139Z,18.83
2022-11-21T08:04:14.542Z,18.10
2022-11-21T08:07:01.166Z,17.92
2022-11-21T08:09:41.658Z,17.48
2022-11-21T08:12:29.223Z,16.45
2022-11-21T08:15:17.328Z,19.08
2022-11-21T08:17:57.130Z,17.90
2022-11-21T08:20:45.097Z,16.10
2022-11-21T08:23:25.134Z,16.30
2022-11-21T08:26:16.058Z,16.23
2022-11-21T08:28:59.932Z,17.92
2022-11-21T08:31:47.056Z,15.68
2022-11-21T08:34:27.164Z,16.02
2022-11-21T08:37:15.100Z,15.77
2022-11-21T08:39:55.103Z,16.27
2022-11-21T08:42:42.068Z,18.58
2022-11-21T08:45:29.062Z,18.15
2022-11-21T08:48:19.043Z,19.70
2022-11-21T08:50:59.129Z,18.20
2022-11-21T08:53:46.112Z,15.80
2022-11-21T08:56:41.220Z,22.02
2022-11-21T08:59:28.047Z,16.80
2022-11-21T09:02:15.051Z,17.08
2022-11-21T09:05:02.052Z,18.13
2022-11-21T09:07:49.094Z,16.40
2022-11-21T09:10:36.190Z,19.73
2022-11-21T09:13:16.050Z,16.63
2022-11-21T09:16:24.023Z,17.02
2022-11-21T09:19:04.120Z,18.33
2022-11-21T09:21:51.147Z,17.55
2022-11-21T09:24:31.060Z,16.55
2022-11-21T09:27:18.047Z,16.48
2022-11-21T09:29:58.178Z,16.70
2022-11-21T09:32:47.046Z,17.50
2022-11-21T09:35:34.099Z,18.83
2022-11-21T09:38:28.044Z,17.15
2022-11-21T09:41:53.070Z,18.67
2022-11-21T09:44:55.075Z,19.40
2022-11-21T09:47:48.137Z,19.00
2022-11-21T09:50:41.078Z,17.20
2022-11-21T09:53:37.041Z,18.17
2022-11-21T09:56:31.048Z,21.35
2022-11-21T09:59:41.470Z,18.20
2022-11-21T10:02:27.077Z,19.27
2022-11-21T10:05:13.885Z,18.83
2022-11-21T10:08:00.153Z,17.70
2022-11-21T10:10:50.114Z,19.52
2022-11-21T10:13:50.077Z,20.67
2022-11-21T10:17:03.100Z,21.08
2022-11-21T10:19:54.095Z,18.00
2022-11-21T10:22:47.089Z,17.80
2022-11-21T10:25:34.099Z,18.17
2022-11-21T10:28:34.069Z,18.80
2022-11-21T10:31:18.098Z,18.50
2022-11-21T10:34:07.069Z,18.85
2022-11-21T10:36:51.125Z,19.98
2022-11-21T10:39:55.072Z,17.70
2022-11-21T10:42:57.808Z,17.13
2022-11-21T10:45:44.046Z,19.98
2022-11-21T10:48:24.112Z,18.48
2022-11-21T10:51:20.056Z,18.55
2022-11-21T10:54:33.490Z,18.50
2022-11-21T10:57:35.075Z,17.60
2022-11-21T11:00:22.382Z,19.08
2022-11-21T11:03:11.061Z,18.33
2022-11-21T11:05:59.193Z,18.42
2022-11-21T11:09:04.065Z,20.48
2022-11-21T11:11:44.515Z,17.40
2022-11-21T11:14:43.064Z,16.30
2022-11-21T11:17:39.105Z,20.17
2022-11-21T11:20:38.093Z,20.25
2022-11-21T11:23:29.066Z,20.50
2022-11-21T11:26:09.136Z,17.23
2022-11-21T11:28:56.056Z,18.38
2022-11-21T11:31:47.805Z,18.35
2022-11-21T11:34:45.083Z,19.25
2022-11-21T11:37:45.136Z,22.77
2022-11-21T11:40:42.056Z,20.17
2022-11-21T11:43:55.777Z,17.73
2022-11-21T11:47:06.060Z,17.75
2022-11-21T11:50:09.646Z,19.55
2022-11-21T11:53:19.064Z,17.25
2022-11-21T11:56:20.110Z,16.90
2022-11-21T11:59:25.138Z,18.85
2022-11-21T12:02:41.127Z,18.15
2022-11-21T12:05:25.651Z,19.55
2022-11-21T12:11:46.939Z,19.63
2022-11-21T12:15:15.075Z,20.13
2022-11-21T12:17:58.143Z,18.40
2022-11-21T12:20:57.084Z,17.40
2022-11-21T12:24:03.067Z,18.70
2022-11-21T12:27:08.751Z,19.17
2022-11-21T12:30:10.052Z,18.85
2022-11-21T12:33:17.068Z,18.15
2022-11-21T12:36:27.078Z,19.77
2022-11-21T12:39:16.072Z,19.60
2022-11-21T12:42:27.900Z,17.00
2022-11-21T12:45:36.076Z,19.08
2022-11-21T12:48:53.044Z,19.20
2022-11-21T12:52:11.557Z,18.83
2022-11-21T12:55:18.485Z,17.92
2022-11-21T12:58:36.056Z,15.73
2022-11-21T13:01:38.152Z,14.70
2022-11-21T13:04:27.126Z,15.20
2022-11-21T13:07:15.123Z,14.40
2022-11-21T13:09:59.145Z,15.30
2022-11-21T13:13:04.076Z,13.90
2022-11-21T13:15:58.101Z,14.13
2022-11-21T13:18:54.056Z,14.05
2022-11-21T13:21:48.088Z,13.98
2022-11-21T13:24:54.062Z,13.68
2022-11-21T13:27:39.587Z,13.45
2022-11-21T13:30:29.193Z,13.90
2022-11-21T13:33:19.925Z,11.95
2022-11-21T13:36:18.065Z,13.13
2022-11-21T13:39:05.073Z,14.48
2022-11-21T13:42:29.069Z,12.95
2022-11-21T13:45:59.094Z,13.35
2022-11-21T13:51:55.316Z,10.75
2022-11-21T13:55:23.075Z,13.48
2022-11-21T13:58:16.044Z,13.32
2022-11-21T14:01:17.509Z,11.57
2022-11-21T14:04:14.286Z,13.93
2022-11-21T14:07:01.268Z,9.27
2022-11-21T14:09:46.103Z,11.65
2022-11-21T14:12:44.330Z,9.68
2022-11-21T14:16:02.067Z,9.95
2022-11-21T14:18:51.069Z,9.82
2022-11-21T14:21:43.327Z,10.15
2022-11-21T14:24:31.353Z,9.25
2022-11-21T14:27:13.121Z,8.77
2022-11-21T14:30:00.089Z,9.57
2022-11-21T14:32:40.044Z,10.20
2022-11-21T14:35:36.063Z,9.40
2022-11-21T14:38:23.176Z,11.50
2022-11-21T14:41:39.100Z,11.75
2022-11-21T14:44:21.897Z,8.25
2022-11-21T14:47:29.068Z,9.35
2022-11-21T14:50:36.133Z,8.40
2022-11-21T14:53:18.106Z,9.27
2022-11-21T14:56:05.071Z,10.63
2022-11-21T14:58:47.236Z,8.10
2022-11-21T15:01:36.071Z,9.02
2022-11-21T15:04:29.374Z,9.45
2022-11-21T15:10:32.989Z,9.68
2022-11-21T15:13:45.185Z,8.80
2022-11-21T15:16:31.923Z,8.48
2022-11-21T15:19:24.083Z,8.95
2022-11-21T15:22:04.679Z,8.20
2022-11-21T15:24:56.056Z,9.50
2022-11-21T15:27:36.624Z,7.95
2022-11-21T15:30:23.096Z,8.85
2022-11-21T15:33:10.273Z,8.90
2022-11-21T15:36:11.358Z,8.13
2022-11-21T15:39:15.201Z,8.70
2022-11-21T15:42:02.066Z,9.98
2022-11-21T15:44:42.127Z,8.13
2022-11-21T15:47:29.083Z,9.10
2022-11-21T15:50:09.121Z,9.10
2022-11-21T15:52:58.068Z,8.05
2022-11-21T15:55:38.113Z,7.80
2022-11-21T15:58:25.049Z,9.60
2022-11-21T16:01:05.267Z,7.35
2022-11-21T16:03:55.057Z,9.00
2022-11-21T16:06:42.074Z,7.93
2022-11-21T16:12:09.140Z,8.43
2022-11-21T16:14:56.071Z,9.85
2022-11-21T16:17:36.156Z,8.13
2022-11-21T16:20:23.101Z,9.38
2022-11-21T16:23:03.125Z,7.50
2022-11-21T16:26:02.084Z,9.93
2022-11-21T16:28:43.187Z,8.00
2022-11-21T16:31:35.103Z,9.07
2022-11-21T16:34:15.121Z,7.68
2022-11-21T16:37:07.134Z,10.45
2022-11-21T16:39:52.136Z,8.82
2022-11-21T16:42:39.072Z,8.80
2022-11-21T16:45:19.124Z,8.30
2022-11-21T16:48:06.070Z,9.02
2022-11-21T16:50:46.131Z,10.73
2022-11-21T16:53:37.081Z,9.70
2022-11-21T16:56:25.067Z,6.93
2022-11-21T16:59:19.069Z,10.02
2022-11-21T17:02:06.061Z,7.18
2022-11-21T17:04:47.060Z,7.47
2022-11-21T17:07:34.099Z,11.23
2022-11-21T17:10:15.195Z,10.02
2022-11-21T17:13:02.065Z,11.65
2022-11-21T17:15:42.139Z,8.43
2022-11-21T17:18:29.089Z,9.43
2022-11-21T17:21:14.130Z,9.00
2022-11-21T17:24:01.090Z,10.70
2022-11-21T17:26:43.163Z,8.98
2022-11-21T17:29:30.090Z,7.18
2022-11-21T17:32:10.120Z,9.27
2022-11-21T17:34:57.063Z,7.82
2022-11-21T17:37:37.184Z,7.07
2022-11-21T17:40:24.069Z,6.53
2022-11-21T17:43:04.161Z,8.05
2022-11-21T17:45:51.072Z,6.95
2022-11-21T17:48:31.117Z,8.90
2022-11-21T17:51:21.102Z,8.18
2022-11-21T17:54:01.212Z,9.25
2022-11-21T17:56:52.639Z,7.95
2022-11-21T17:59:44.943Z,8.00
2022-11-21T18:02:25.227Z,9.10
2022-11-21T18:05:12.262Z,8.15
2022-11-21T18:07:52.181Z,8.27
2022-11-21T18:10:47.927Z,5.28
2022-11-21T18:13:35.126Z,7.10
2022-11-21T18:19:07.074Z,7.22
2022-11-21T18:24:34.093Z,9.88
2022-11-21T18:27:14.525Z,10.05
2022-11-21T18:30:01.270Z,10.63
2022-11-21T18:32:48.098Z,11.52
2022-11-21T18:35:35.095Z,11.52
2022-11-21T18:38:46.858Z,12.70
2022-11-21T18:41:31.085Z,12.45
2022-11-21T18:44:22.262Z,9.57
2022-11-21T18:47:02.097Z,8.38
2022-11-21T18:49:42.559Z,7.22
2022-11-21T18:52:29.107Z,8.27
2022-11-21T18:55:09.760Z,9.60
2022-11-21T18:57:56.089Z,8.73
2022-11-21T19:00:36.572Z,10.02
2022-11-21T19:03:23.104Z,9.25
2022-11-21T19:06:20.382Z,9.55
2022-11-21T19:09:02.106Z,11.35
2022-11-21T19:11:49.220Z,10.70
2022-11-21T19:14:29.484Z,8.73
2022-11-21T19:17:09.555Z,9.70
2022-11-21T19:19:56.239Z,10.20
2022-11-21T19:25:23.059Z,17.25
2022-11-21T19:28:03.893Z,16.50
2022-11-21T19:30:57.077Z,7.43
2022-11-21T19:33:44.191Z,8.02
2022-11-21T19:36:27.075Z,8.68
2022-11-21T19:39:15.082Z,10.00
2022-11-21T19:41:56.200Z,9.20
2022-11-21T19:47:23.167Z,8.30
2022-11-21T19:50:10.083Z,8.45
2022-11-21T19:52:50.109Z,9.00
2022-11-21T19:55:37.090Z,9.00
2022-11-21T19:58:17.476Z,8.43
2022-11-21T20:01:12.211Z,10.75
2022-11-21T20:04:02.077Z,8.07
2022-11-21T20:06:49.119Z,10.50
2022-11-21T20:09:36.573Z,7.72
2022-11-21T20:12:23.064Z,8.05
2022-11-21T20:15:10.090Z,7.35
2022-11-21T20:17:58.131Z,7.15
2022-11-21T20:20:38.094Z,8.38
2022-11-21T20:23:25.320Z,7.13
2022-11-21T20:28:53.273Z,8.15
2022-11-21T20:31:43.242Z,7.65
2022-11-21T20:34:30.571Z,7.78
2022-11-21T20:37:10.212Z,8.07
2022-11-21T20:39:57.362Z,7.75
2022-11-21T20:46:07.192Z,9.25
2022-11-21T20:48:25.131Z,9.20
2022-11-21T20:54:12.193Z,8.57
2022-11-21T20:56:59.151Z,10.10
2022-11-21T20:59:46.103Z,8.10
2022-11-21T21:02:26.546Z,7.05
2022-11-21T21:05:13.103Z,8.27
2022-11-21T21:08:00.083Z,6.75
2022-11-21T21:11:04.995Z,9.23
2022-11-21T21:13:47.240Z,7.07
2022-11-21T21:19:24.101Z,12.65
2022-11-21T21:22:11.068Z,12.60
2022-11-21T21:24:51.221Z,10.93
2022-11-21T21:27:38.090Z,8.25
2022-11-21T21:30:25.066Z,10.18
2022-11-21T21:33:12.223Z,10.07
2022-11-21T21:35:52.077Z,10.93
2022-11-21T21:38:32.576Z,8.98
2022-11-21T21:41:21.088Z,11.77
2022-11-21T21:44:01.576Z,12.90
2022-11-21T21:46:48.094Z,11.07
2022-11-21T21:49:28.989Z,9.75
2022-11-21T21:55:03.262Z,10.88
2022-11-21T21:57:47.111Z,11.35
2022-11-21T22:00:36.129Z,8.23
2022-11-21T22:03:16.104Z,12.27
2022-11-21T22:06:07.154Z,8.80
2022-11-21T22:08:48.073Z,8.82
2022-11-21T22:14:28.289Z,10.52
2022-11-21T22:17:08.611Z,10.20
2022-11-21T22:19:55.118Z,13.73
2022-11-21T22:25:22.098Z,11.55
2022-11-21T22:28:09.759Z,9.68
2022-11-21T22:30:49.084Z,9.18
2022-11-21T22:33:36.129Z,10.35
2022-11-21T22:36:32.091Z,9.70
2022-11-21T22:39:19.155Z,9.05
2022-11-21T22:42:00.028Z,8.98
2022-11-21T22:44:47.080Z,10.20
2022-11-21T22:47:27.117Z,11.15
2022-11-21T22:50:15.081Z,9.68
2022-11-21T22:52:55.128Z,11.32
2022-11-21T22:55:42.093Z,11.77
2022-11-21T22:58:46.092Z,10.52
2022-11-21T23:01:33.180Z,10.38
2022-11-21T23:04:17.458Z,11.50
2022-11-21T23:07:04.097Z,6.90
2022-11-21T23:09:44.560Z,7.95
2022-11-21T23:12:32.072Z,9.52
2022-11-21T23:15:13.192Z,7.70
2022-11-21T23:18:00.085Z,8.23
2022-11-21T23:20:40.286Z,7.90
2022-11-21T23:23:27.092Z,10.20
2022-11-21T23:26:07.183Z,12.32
2022-11-21T23:28:54.092Z,7.45
2022-11-21T23:31:34.252Z,9.48
2022-11-21T23:34:21.069Z,10.70
2022-11-21T23:37:01.272Z,7.95
2022-11-21T23:39:48.076Z,8.07
2022-11-21T23:42:28.188Z,9.68
2022-11-21T23:45:16.111Z,8.88
2022-11-21T23:47:56.164Z,10.38
2022-11-21T23:50:43.080Z,7.93
2022-11-21T23:53:23.165Z,8.13
2022-11-21T23:56:10.078Z,9.93
2022-11-21T23:58:50.136Z,10.68
